Aldergrove, United Kingdom
Current Conditions -  °F | °C
As of 5:20 PM on Monday 22 Dec 2014 (Local Time) from EGAA Reporting Station
Light Rain Light Rain  
Wind Chill: 44°   Ceiling: 1400
Heat Index: 48°   Visibility: 5mi
Dew Point: 48°   Wind: 9mph
Humidity: 100%   Direction: 270°W
Pressure: 29.71"   Gusts: NA
Location:  54.62°N, 6.21°W
Report Text: EGAA 221720Z 27008KT 8000 -RA SCT006 SCT009 BKN014 09/09 Q1006
Loading
Personal Weather Stations






























Interactive Weather Map New forecast layout! Learn more

10-Day Weather Forecast

Advertisements
Track Severe Weather on mobile